Cacique Doble, Brazil
Current Conditions -  °F | °C
As of 8:00 PM on Friday 19 Dec 2014 (Local Time) from SBPF Reporting Station
Clear Clear  
Wind Chill: 81°   Ceiling: Unl
Heat Index: 82°   Visibility: 6mi
Dew Point: 64°   Wind: 12mph
Humidity: 58%   Direction: 180°S
Pressure: 29.77"   Gusts: NA
Location:  27.77°S, 51.66°W
Report Text: SBPF 192200Z 18010KT CAVOK 27/18 Q1008
Loading
Personal Weather Stations






























Interactive Weather Map New forecast layout! Learn more

10-Day Weather Forecast

Advertisements
Track Severe Weather on mobile